»·PEaware :: N824CS L52-L88

N824CS :: L52-L88

FLIGHT INFORMATION

Flight Status: Arrived
Operator: Privately registered:
United States
More flights under this callsign
Pilot: Luis M. (34457)
Aircraft: CESSNA 206 STATIONAIR
(C206)
More flights by this aircraft type
Origin: L52 Oceano Co
United States
Destination: L88 New Cuyama
United States
More flights between these airports :: More routes between these airports
Route: OCEANOCOUNTY WYNNR NEWCUYAMA
File this flight plan on PilotEdge
Remarks:
Altitude:
(Current/Filed)
3,500ft
Speed:
(Current/Filed)
130kts
Departed: 20-Nov-23 11:03 AM
Arrived: 20-Nov-23 11:28 AM
Distance/Time
Traveled:
47nm/0:25
Distance/Time
To Go:
Arrived

Flight Plot

Page will automatically refresh every two minutes.

Flight plan parsing failed; only flown route is shown


Map Options




Map Legend


Flown Route
Filed Route
Departure Airport
Arrival Airport
Navaid (VOR, NDB)
Fix

Horizontal Profiles

Position Reports

Time Latitude Longitude Heading Altitude Ground
Speed
20-Nov-23 10:25 35.103537 -120.624824 0 18ft 0kts
20-Nov-23 10:26 35.103537 -120.624824 0 18ft 0kts
20-Nov-23 10:27 35.103537 -120.624824 0 18ft 0kts
20-Nov-23 10:28 35.103537 -120.624824 0 18ft 0kts
20-Nov-23 10:29 35.103537 -120.624824 0 18ft 0kts
20-Nov-23 10:30 35.103537 -120.624824 0 18ft 0kts
20-Nov-23 10:31 35.103537 -120.624824 0 18ft 0kts
20-Nov-23 10:32 35.103537 -120.624824 0 18ft 0kts
20-Nov-23 10:33 35.103537 -120.624824 0 18ft 0kts
20-Nov-23 10:34 35.103537 -120.624824 0 18ft 0kts
20-Nov-23 10:35 35.103537 -120.624824 0 18ft 0kts
20-Nov-23 10:36 35.103537 -120.624824 0 18ft 0kts
20-Nov-23 10:37 35.103537 -120.624824 0 18ft 0kts
20-Nov-23 10:38 35.103537 -120.624824 0 18ft 0kts
20-Nov-23 10:39 35.103537 -120.624824 0 18ft 0kts
20-Nov-23 10:40 35.103537 -120.624824 0 18ft 0kts
20-Nov-23 10:40 35.103537 -120.624824 0 18ft 0kts
20-Nov-23 10:42 35.103537 -120.624824 0 18ft 0kts
20-Nov-23 10:43 35.103537 -120.624824 0 18ft 0kts
20-Nov-23 10:44 35.103537 -120.624824 0 18ft 0kts
20-Nov-23 10:45 35.103537 -120.624824 0 18ft 0kts
20-Nov-23 10:46 35.103537 -120.624824 0 18ft 0kts
20-Nov-23 10:50 35.103537 -120.624824 34 18ft 0kts
20-Nov-23 10:51 35.103537 -120.624824 34 18ft 0kts
20-Nov-23 10:53 35.103538 -120.624824 34 18ft 0kts
20-Nov-23 10:53 35.103538 -120.624824 34 18ft 0kts
20-Nov-23 10:54 35.103538 -120.624824 34 18ft 0kts
20-Nov-23 10:55 35.103538 -120.624824 34 18ft 0kts
20-Nov-23 10:56 35.103538 -120.624824 34 18ft 0kts
20-Nov-23 10:57 35.103538 -120.624823 34 18ft 0kts
20-Nov-23 10:58 35.103700 -120.624967 272 18ft 12kts
20-Nov-23 10:59 35.103187 -120.625488 118 18ft 0kts
20-Nov-23 11:00 35.102117 -120.623985 218 18ft 6kts
20-Nov-23 11:01 35.102013 -120.623348 120 18ft 38kts
20-Nov-23 11:02 35.090447 -120.600736 117 565ft 91kts
20-Nov-23 11:04 35.081506 -120.563257 93 1224ft 110kts
20-Nov-23 11:04 35.080198 -120.531151 91 1733ft 116kts
20-Nov-23 11:05 35.078934 -120.491303 93 2347ft 118kts
20-Nov-23 11:06 35.078171 -120.451001 92 2938ft 119kts
20-Nov-23 11:07 35.079826 -120.409888 87 3483ft 121kts
20-Nov-23 11:08 35.086097 -120.369266 78 4016ft 122kts
20-Nov-23 11:09 35.096450 -120.329658 76 4426ft 124kts
20-Nov-23 11:10 35.105371 -120.287169 87 4546ft 133kts
20-Nov-23 11:11 35.109130 -120.241567 90 4606ft 133kts
20-Nov-23 11:12 35.109249 -120.196408 90 4660ft 135kts
20-Nov-23 11:13 35.107665 -120.150628 97 4700ft 135kts
20-Nov-23 11:14 35.100495 -120.105505 108 4739ft 134kts
20-Nov-23 11:15 35.086493 -120.063238 116 4776ft 134kts
20-Nov-23 11:16 35.068543 -120.023248 121 4812ft 134kts
20-Nov-23 11:17 35.050108 -119.983489 120 4847ft 134kts
20-Nov-23 11:18 35.032626 -119.943128 122 4882ft 134kts
20-Nov-23 11:19 35.015684 -119.901721 110 4876ft 136kts
20-Nov-23 11:20 35.003719 -119.857555 113 4849ft 137kts
20-Nov-23 11:21 34.988440 -119.815357 117 4493ft 136kts
20-Nov-23 11:22 34.972076 -119.774183 119 3988ft 134kts
20-Nov-23 11:23 34.955433 -119.733962 118 3458ft 130kts
20-Nov-23 11:24 34.938787 -119.697589 124 2825ft 105kts
20-Nov-23 11:25 34.930616 -119.674084 31 2544ft 70kts
20-Nov-23 11:26 34.940719 -119.687478 296 2168ft 41kts
20-Nov-23 11:27 34.942863 -119.690718 61 2155ft 9kts
20-Nov-23 11:28 34.942878 -119.690302 117 2156ft 0kts
20-Nov-23 11:29 34.942878 -119.690302 117 2156ft 0kts
20-Nov-23 11:30 34.942878 -119.690302 117 2156ft 0kts
20-Nov-23 11:31 34.942878 -119.690302 117 2156ft 0kts
20-Nov-23 11:32 34.942878 -119.690302 117 2156ft 0kts
20-Nov-23 11:33 34.942878 -119.690302 117 2156ft 0kts
20-Nov-23 11:34 34.942878 -119.690302 117 2156ft 0kts
20-Nov-23 11:35 34.942878 -119.690302 117 2156ft 0kts
20-Nov-23 11:36 34.942878 -119.690302 117 2156ft 0kts
20-Nov-23 11:37 34.942878 -119.690302 117 2156ft 0kts
20-Nov-23 11:38 34.942878 -119.690302 117 2156ft 0kts
20-Nov-23 11:39 34.942878 -119.690302 117 2156ft 0kts
20-Nov-23 11:40 34.942878 -119.690302 117 2156ft 0kts
20-Nov-23 11:41 34.942878 -119.690302 117 2156ft 0kts
20-Nov-23 11:42 34.942878 -119.690302 117 2156ft 0kts

Navigation Log

Ident Type
Flight plan parsing failed, navigation log unavailable